KNPA/NPA METAR and TAF weather

Enter ICAO airport designator
Station Type Date Time Source
KNPA METAR 2020/04/04 10:56 UTC NOAA

KNPA 041056Z AUTO 35003KT 9SM CLR 14/13 A2996 RMK AO2 SLP147 T01440128


Station Type Date Time Source
KNPA Decoded METAR 2020/04/04 10:56 UTC NOAA

Pensacola, Naval Air Station, FL, United States (KNPA) 30-21-22N 087-19-24W 10M
Apr 04, 2020 - 06:56 AM EDT / 2020.04.04 1056 UTC
Wind: from the N (350 degrees) at 3 MPH (3 KT):0
Visibility: 9 mile(s):0
Sky conditions: clear
Temperature: 57.9 F (14.4 C)
Dew Point: 55.0 F (12.8 C)
Relative Humidity: 90%
Pressure (altimeter): 29.96 in. Hg (1014 hPa)
ob: KNPA 041056Z AUTO 35003KT 9SM CLR 14/13 A2996 RMK AO2 SLP147 T01440128
cycle: 11

Station Type Date Time Source
KNPA TAF 2020/04/03 23:03 UTC NOAA

TAF TAF KNPA 0323/0423 23006KT 9999 SCT120 BKN180 SCT250 QNH2994INS
FM040100 VRB04KT 9999 BKN120 BKN180 BKN250 QNH2996INS
FM041300 03005KT 9999 SCT120 BKN170 BKN250 QNH3001INS
FM041800 17008KT 9999 FEW030 BKN120 BKN150 OVC250 QNH2992INS LAST NO
AMD AFT 0401/ NEXT 0607 AUTOMATED SENSOR METWATCH 0403 TIL 0611 T14/0411Z T25/0418Z FN20034

Example: see airport list